Time;durP1;ratioP1;P1;durP2;ratioP2;P2;SDS_P1;SDS_P2;PMS_P1;PMS_P2;Temp;Humidity;BMP_temperature;BMP_pressure;BME280_temperature;BME280_humidity;BME280_pressure;Samples;Min_cycle;Max_cycle;Signal;HPM_P1;HPM_P2
2022/12/16 00:01:48;;;;;;;21.83;14.27;;;;;;;-7.66;100.00;99189.53;5026736;28;20211;-66
2022/12/16 00:04:16;;;;;;;23.80;14.27;;;;;;;-7.66;100.00;99194.50;5031552;28;20640;-66
2022/12/16 00:06:42;;;;;;;24.87;14.57;;;;;;;-7.67;100.00;99200.34;5033554;28;20191;-65
2022/12/16 00:09:07;;;;;;;26.00;14.37;;;;;;;-7.81;100.00;99200.25;5049708;28;20430;-65
2022/12/16 00:11:32;;;;;;;26.13;15.43;;;;;;;-7.77;100.00;99203.63;5034021;28;20584;-66
2022/12/16 00:13:58;;;;;;;27.77;15.50;;;;;;;-7.81;100.00;99206.94;5034532;28;20190;-66
2022/12/16 00:16:23;;;;;;;24.20;14.77;;;;;;;-7.83;100.00;99211.91;5030969;28;20274;-66
2022/12/16 00:18:48;;;;;;;26.50;15.10;;;;;;;-8.01;100.00;99202.66;5033917;28;20174;-66
2022/12/16 00:21:17;;;;;;;26.73;16.00;;;;;;;-7.89;100.00;99201.06;5032602;28;20768;-65
2022/12/16 00:23:43;;;;;;;28.33;15.07;;;;;;;-8.01;100.00;99207.66;5029576;28;20191;-66
2022/12/16 00:26:09;;;;;;;26.90;16.07;;;;;;;-7.92;100.00;99203.53;5011290;28;20434;-67
2022/12/16 00:28:35;;;;;;;23.83;14.33;;;;;;;-7.92;100.00;99201.88;5029626;28;20180;-66
2022/12/16 00:31:00;;;;;;;23.77;14.47;;;;;;;-7.91;100.00;99203.53;5028032;28;20456;-65
2022/12/16 00:33:26;;;;;;;23.40;14.60;;;;;;;-7.92;100.00;99201.88;5033335;28;20451;-66
2022/12/16 00:35:53;;;;;;;26.07;15.03;;;;;;;-7.92;100.00;99196.88;5033383;28;20294;-65
2022/12/16 00:38:19;;;;;;;25.20;14.97;;;;;;;-7.92;100.00;99193.56;5033672;28;20913;-66
2022/12/16 00:40:45;;;;;;;23.30;14.67;;;;;;;-7.81;100.00;99202.75;5033626;28;20943;-65
2022/12/16 00:43:10;;;;;;;24.67;15.43;;;;;;;-7.83;100.00;99201.09;5022711;28;20436;-65
2022/12/16 00:45:36;;;;;;;25.43;15.63;;;;;;;-7.92;100.00;99198.56;5033585;28;20234;-66
2022/12/16 00:48:01;;;;;;;24.60;14.90;;;;;;;-7.84;100.00;99199.41;5033139;28;20197;-65
2022/12/16 00:50:27;;;;;;;26.50;15.47;;;;;;;-7.88;100.00;99203.53;5027135;28;20191;-64
2022/12/16 00:52:52;;;;;;;22.77;13.90;;;;;;;-7.87;100.00;99202.72;5019928;28;20191;-65
2022/12/16 00:55:18;;;;;;;24.40;14.47;;;;;;;-7.86;100.00;99196.91;5033369;28;20651;-64
2022/12/16 00:57:44;;;;;;;27.20;14.83;;;;;;;-7.80;100.00;99193.59;5030724;28;20182;-66
2022/12/16 01:00:11;;;;;;;22.00;12.67;;;;;;;-7.83;100.00;99193.59;5024293;28;20279;-66
2022/12/16 01:02:44;;;;;;;23.67;14.30;;;;;;;-7.97;100.00;99196.03;5042929;28;20183;-65
2022/12/16 01:05:13;;;;;;;19.13;12.40;;;;;;;-7.85;100.00;99200.22;5023599;28;20410;-66
2022/12/16 01:07:38;;;;;;;22.73;14.17;;;;;;;-7.80;100.00;99196.09;5020746;28;20431;-65
2022/12/16 01:10:05;;;;;;;24.60;14.00;;;;;;;-7.69;100.00;99196.16;5032263;28;20426;-65
2022/12/16 01:12:30;;;;;;;18.23;12.23;;;;;;;-7.65;100.00;99197.88;5031924;28;20172;-65
2022/12/16 01:14:56;;;;;;;23.97;13.33;;;;;;;-7.58;100.00;99204.53;5031783;28;20487;-65
2022/12/16 01:17:21;;;;;;;21.57;12.40;;;;;;;-7.54;100.00;99203.75;5047852;28;20182;-65
2022/12/16 01:19:46;;;;;;;20.00;11.43;;;;;;;-7.52;100.00;99216.22;5032132;28;20547;-65
2022/12/16 01:22:12;;;;;;;21.83;13.03;;;;;;;-7.55;100.00;99219.56;5033186;28;20177;-65
2022/12/16 01:24:38;;;;;;;19.40;12.40;;;;;;;-7.70;100.00;99217.81;5032051;28;20172;-65
2022/12/16 01:27:03;;;;;;;19.47;11.80;;;;;;;-7.66;100.00;99221.97;5032709;28;20424;-66
2022/12/16 01:29:28;;;;;;;22.43;13.03;;;;;;;-7.78;100.00;99225.28;5032714;28;20245;-65
2022/12/16 01:31:54;;;;;;;21.83;12.87;;;;;;;-7.80;100.00;99226.06;5031458;28;20549;-65
2022/12/16 01:34:19;;;;;;;22.00;12.10;;;;;;;-7.70;100.00;99227.81;5029001;28;20194;-65
2022/12/16 01:36:44;;;;;;;21.50;12.83;;;;;;;-7.56;100.00;99237.84;5032614;28;20179;-65
2022/12/16 01:39:10;;;;;;;19.13;11.27;;;;;;;-7.57;100.00;99236.19;5032902;28;20194;-65
2022/12/16 01:41:36;;;;;;;19.83;12.20;;;;;;;-7.85;100.00;99233.53;5032575;28;20201;-65
2022/12/16 01:44:15;;;;;;;19.13;11.93;;;;;;;-7.76;100.00;99250.25;5031410;28;20193;-65
2022/12/16 01:46:42;;;;;;;19.00;11.00;;;;;;;-7.66;100.00;99243.63;5031305;28;20241;-66
2022/12/16 01:49:23;;;;;;;20.53;12.23;;;;;;;-7.72;100.00;99248.59;5041507;28;20440;-66
2022/12/16 01:51:48;;;;;;;18.27;10.43;;;;;;;-7.90;100.00;99250.16;5018513;28;20688;-66
2022/12/16 01:54:23;;;;;;;20.03;12.63;;;;;;;-7.86;100.00;99251.84;5032682;28;20453;-65
2022/12/16 01:56:53;;;;;;;18.27;11.23;;;;;;;-8.03;100.00;99253.38;5028164;28;20198;-65
2022/12/16 01:59:21;;;;;;;19.90;11.50;;;;;;;-8.00;100.00;99255.91;5032324;28;20466;-66
2022/12/16 02:01:46;;;;;;;19.27;11.33;;;;;;;-7.99;100.00;99257.56;5032177;28;20474;-66
2022/12/16 02:04:12;;;;;;;21.57;12.37;;;;;;;-8.08;100.00;99255.84;5046391;28;20432;-65
2022/12/16 02:06:37;;;;;;;18.57;10.70;;;;;;;-8.22;100.00;99254.88;5043278;28;20540;-65
2022/12/16 02:09:09;;;;;;;20.17;11.67;;;;;;;-8.15;100.00;99261.59;5027784;28;20184;-65
2022/12/16 02:11:55;;;;;;;17.13;10.20;;;;;;;-8.05;100.00;99267.50;5031147;28;20185;-66
2022/12/16 02:14:27;;;;;;;18.37;11.17;;;;;;;-8.14;100.00;99259.13;5027786;28;20508;-65
2022/12/16 02:17:14;;;;;;;20.73;12.00;;;;;;;-8.31;100.00;99260.66;5030231;28;20959;-66
2022/12/16 02:20:09;;;;;;;21.43;10.97;;;;;;;-8.45;100.00;99260.53;5031904;28;20424;-65
2022/12/16 02:22:57;;;;;;;19.27;11.13;;;;;;;-8.45;100.00;99263.84;5032383;28;20458;-65
2022/12/16 02:25:28;;;;;;;21.50;11.27;;;;;;;-8.23;100.00;99256.56;5037385;28;20844;-66
2022/12/16 02:28:23;;;;;;;20.97;12.07;;;;;;;-8.26;100.00;99261.50;5029841;28;20774;-65
2022/12/16 02:31:00;;;;;;;15.50;10.00;;;;;;;-8.37;100.00;99263.94;5031941;28;20765;-66
2022/12/16 02:33:31;;;;;;;20.07;11.43;;;;;;;-8.36;100.00;99270.59;5020113;28;20491;-66
2022/12/16 02:36:04;;;;;;;21.07;10.37;;;;;;;-8.23;100.00;99269.03;5031195;28;20456;-65
2022/12/16 02:38:41;;;;;;;16.73;10.33;;;;;;;-8.13;100.00;99263.28;5030545;28;20935;-65
2022/12/16 02:44:43;;;;;;;14.97;9.73;;;;;;;-8.52;100.00;99262.19;5047219;28;20455;-64
2022/12/16 02:47:08;;;;;;;17.43;9.30;;;;;;;-8.29;100.00;99264.00;5042689;28;20432;-65
2022/12/16 02:49:34;;;;;;;15.97;10.13;;;;;;;-8.22;100.00;99267.38;5044377;28;20404;-65
2022/12/16 02:52:00;;;;;;;16.80;10.20;;;;;;;-8.34;100.00;99263.13;5035949;28;20675;-65
2022/12/16 02:54:27;;;;;;;15.07;10.23;;;;;;;-8.22;100.00;99260.72;5049354;28;20729;-65
2022/12/16 02:57:16;;;;;;;16.17;10.17;;;;;;;-8.29;100.00;99264.81;5048337;28;20536;-65
2022/12/16 03:00:05;;;;;;;16.73;9.90;;;;;;;-8.27;100.00;99272.34;5048774;28;20566;-65
2022/12/16 03:02:43;;;;;;;16.07;9.23;;;;;;;-8.28;100.00;99266.50;5049454;28;20436;-66
2022/12/16 03:05:20;;;;;;;13.83;8.97;;;;;;;-8.28;100.00;99270.66;5050741;28;20937;-66
2022/12/16 03:07:47;;;;;;;16.00;9.83;;;;;;;-8.27;100.00;99259.88;5054391;28;20454;-66
2022/12/16 03:10:16;;;;;;;19.00;10.63;;;;;;;-8.35;100.00;99259.78;5049162;28;20818;-66
2022/12/16 03:12:44;;;;;;;18.77;10.73;;;;;;;-8.44;100.00;99264.69;5048760;28;21072;-66
2022/12/16 03:15:13;;;;;;;16.47;10.00;;;;;;;-8.44;100.00;99265.53;5026463;28;20426;-66
2022/12/16 03:17:38;;;;;;;15.63;9.60;;;;;;;-8.52;100.00;99268.81;5027221;28;20418;-65
2022/12/16 03:20:31;;;;;;;16.07;9.30;;;;;;;-8.68;100.00;99270.31;5031203;28;20901;-66
2022/12/16 03:23:01;;;;;;;15.67;9.17;;;;;;;-8.57;100.00;99273.75;5033128;28;20186;-66
2022/12/16 03:25:27;;;;;;;14.87;9.23;;;;;;;-8.57;100.00;99272.91;5030930;28;20774;-66
2022/12/16 03:28:02;;;;;;;16.50;9.97;;;;;;;-8.52;100.00;99287.13;5030797;28;20434;-66
2022/12/16 03:30:33;;;;;;;16.23;9.43;;;;;;;-8.48;100.00;99275.50;5031044;28;20204;-66
2022/12/16 03:32:58;;;;;;;14.60;8.77;;;;;;;-8.46;100.00;99272.19;5031166;28;20413;-66
2022/12/16 03:35:41;;;;;;;15.60;9.07;;;;;;;-8.64;100.00;99274.53;5031036;28;20404;-66
2022/12/16 03:38:10;;;;;;;13.27;8.23;;;;;;;-8.64;100.00;99275.34;5033345;28;20190;-67
2022/12/16 03:40:37;;;;;;;17.27;9.67;;;;;;;-8.61;100.00;99274.53;5033529;28;20452;-66
2022/12/16 03:43:04;;;;;;;13.17;8.63;;;;;;;-8.65;100.00;99278.66;5034666;28;20428;-65
2022/12/16 03:45:37;;;;;;;14.33;9.17;;;;;;;-8.67;100.00;99284.44;5031459;28;20421;-66
2022/12/16 03:48:07;;;;;;;13.43;9.27;;;;;;;-8.57;100.00;99286.22;5031523;28;20428;-66
2022/12/16 03:50:34;;;;;;;12.27;8.27;;;;;;;-8.64;100.00;99282.84;5028685;28;20441;-66
2022/12/16 03:53:01;;;;;;;14.57;8.43;;;;;;;-8.57;100.00;99288.69;5028028;28;20424;-66
2022/12/16 03:55:27;;;;;;;11.17;7.63;;;;;;;-8.60;100.00;99287.00;5034147;28;20447;-66
2022/12/16 03:57:52;;;;;;;13.63;8.33;;;;;;;-8.72;100.00;99289.38;5033167;28;20456;-66
2022/12/16 04:00:19;;;;;;;14.87;8.73;;;;;;;-8.68;100.00;99295.25;5029903;28;20513;-67
2022/12/16 04:02:44;;;;;;;14.43;8.23;;;;;;;-8.67;100.00;99295.28;5026272;28;20187;-66
2022/12/16 04:05:09;;;;;;;14.87;8.37;;;;;;;-8.69;100.00;99286.94;5036440;28;20416;-67
2022/12/16 04:07:35;;;;;;;14.70;8.47;;;;;;;-8.60;100.00;99292.00;5042183;28;20193;-65
2022/12/16 04:10:00;;;;;;;12.73;8.23;;;;;;;-8.59;100.00;99297.84;5034337;28;20188;-66
2022/12/16 04:24:18;;;;;;;12.80;8.03;;;;;;;-8.67;100.00;99301.91;5022670;28;20208;-66
2022/12/16 04:26:20;;;;;;;13.17;8.40;;;;;;;-8.83;100.00;99305.88;5022881;28;20484;-66
2022/12/16 04:28:46;;;;;;;13.90;8.67;;;;;;;-8.83;100.00;99316.72;5033658;28;20439;-66
2022/12/16 04:31:11;;;;;;;17.20;8.07;;;;;;;-8.86;100.00;99316.66;5034303;28;20492;-66
